Time;durP1;ratioP1;P1;durP2;ratioP2;P2;SDS_P1;SDS_P2;PMS_P1;PMS_P2;Temp;Humidity;BMP_temperature;BMP_pressure;BME280_temperature;BME280_humidity;BME280_pressure;Samples;Min_cycle;Max_cycle;Signal;HPM_P1;HPM_P2
2022/10/09 00:00:30;;;;;;;8.45;7.85;;;;;;;;;;4975988;28;20507;-62
2022/10/09 00:02:56;;;;;;;7.38;6.88;;;;;;;;;;4978454;28;20042;-62
2022/10/09 00:05:22;;;;;;;8.43;7.82;;;;;;;;;;4977539;28;20057;-62
2022/10/09 00:07:48;;;;;;;7.85;7.25;;;;;;;;;;4977695;28;20190;-62
2022/10/09 00:10:13;;;;;;;7.22;6.72;;;;;;;;;;4978936;28;20062;-62
2022/10/09 00:12:39;;;;;;;7.40;6.90;;;;;;;;;;4977856;28;20455;-62
2022/10/09 00:15:04;;;;;;;7.68;7.07;;;;;;;;;;4977766;28;20057;-62
2022/10/09 00:17:30;;;;;;;7.13;6.63;;;;;;;;;;4985417;28;20022;-62
2022/10/09 00:19:55;;;;;;;7.00;6.50;;;;;;;;;;4973930;28;20457;-62
2022/10/09 00:22:21;;;;;;;7.30;6.80;;;;;;;;;;4978753;28;20559;-62
2022/10/09 00:24:46;;;;;;;6.97;6.47;;;;;;;;;;4979122;28;20121;-62
2022/10/09 00:27:11;;;;;;;6.60;6.10;;;;;;;;;;4974020;28;20104;-62
2022/10/09 00:29:36;;;;;;;6.70;6.20;;;;;;;;;;4979507;28;20026;-62
2022/10/09 00:32:02;;;;;;;6.40;5.90;;;;;;;;;;4976020;28;20049;-62
2022/10/09 00:34:27;;;;;;;6.95;6.45;;;;;;;;;;4974654;28;20035;-63
2022/10/09 00:36:52;;;;;;;6.85;6.35;;;;;;;;;;4979098;28;20042;-63
2022/10/09 00:39:18;;;;;;;7.28;6.68;;;;;;;;;;4981265;28;20038;-62
2022/10/09 00:41:43;;;;;;;6.75;6.25;;;;;;;;;;4978535;28;20062;-62
2022/10/09 00:44:46;;;;;;;6.68;6.18;;;;;;;;;;4976588;28;20042;-62
2022/10/09 00:47:30;;;;;;;6.70;6.20;;;;;;;;;;4976365;28;20041;-62
2022/10/09 00:50:02;;;;;;;7.30;6.78;;;;;;;;;;4974896;28;20057;-62
2022/10/09 00:52:28;;;;;;;9.00;8.10;;;;;;;;;;4977124;28;20030;-62
2022/10/09 00:54:56;;;;;;;8.32;7.53;;;;;;;;;;4976894;28;20030;-63
2022/10/09 00:57:21;;;;;;;11.30;7.70;;;;;;;;;;4979077;28;20053;-64
2022/10/09 00:59:47;;;;;;;8.05;7.43;;;;;;;;;;4978060;28;20062;-62
2022/10/09 01:02:12;;;;;;;6.85;6.25;;;;;;;;;;4982437;28;20591;-62
2022/10/09 01:04:38;;;;;;;7.57;7.07;;;;;;;;;;4980529;28;20599;-62
2022/10/09 01:07:13;;;;;;;6.85;6.35;;;;;;;;;;4987883;28;20178;-62
2022/10/09 01:09:45;;;;;;;7.13;6.63;;;;;;;;;;4981523;28;20113;-62
2022/10/09 01:12:23;;;;;;;7.88;7.35;;;;;;;;;;4981997;28;20350;-62
2022/10/09 01:14:55;;;;;;;6.70;6.20;;;;;;;;;;4983758;28;20068;-63
2022/10/09 01:17:51;;;;;;;8.35;7.75;;;;;;;;;;4986245;28;20400;-62
2022/10/09 01:20:28;;;;;;;6.63;6.13;;;;;;;;;;4980552;28;20085;-62
2022/10/09 01:23:31;;;;;;;7.18;6.63;;;;;;;;;;4985384;28;20037;-62
2022/10/09 01:26:26;;;;;;;6.30;5.80;;;;;;;;;;4940369;28;20126;-62
2022/10/09 01:28:55;;;;;;;15.23;6.78;;;;;;;;;;4983743;28;20074;-62
2022/10/09 01:31:22;;;;;;;7.75;7.15;;;;;;;;;;4979903;28;20052;-62
2022/10/09 01:33:48;;;;;;;6.72;6.22;;;;;;;;;;4978108;28;20050;-62
2022/10/09 01:36:15;;;;;;;6.95;6.45;;;;;;;;;;4983500;28;20552;-62
2022/10/09 01:38:42;;;;;;;7.72;7.18;;;;;;;;;;4979608;28;20023;-62
2022/10/09 01:41:08;;;;;;;6.75;6.25;;;;;;;;;;4981548;28;20811;-62
2022/10/09 01:43:33;;;;;;;7.07;6.57;;;;;;;;;;4979079;28;20084;-62
2022/10/09 01:46:23;;;;;;;7.60;7.10;;;;;;;;;;4981149;28;20345;-62
2022/10/09 01:49:31;;;;;;;6.20;5.80;;;;;;;;;;4980572;28;20038;-62
2022/10/09 01:52:20;;;;;;;7.20;6.68;;;;;;;;;;4979046;28;20585;-63
2022/10/09 01:55:11;;;;;;;7.10;6.60;;;;;;;;;;4980832;28;20037;-63
2022/10/09 01:58:03;;;;;;;6.22;5.82;;;;;;;;;;4981263;28;20026;-62
2022/10/09 02:00:33;;;;;;;7.63;7.10;;;;;;;;;;4979186;28;20885;-63
2022/10/09 02:03:00;;;;;;;8.20;7.47;;;;;;;;;;4978249;28;20476;-61
2022/10/09 02:05:28;;;;;;;7.22;6.72;;;;;;;;;;4980217;28;20416;-60
2022/10/09 02:07:55;;;;;;;8.00;7.50;;;;;;;;;;4976349;28;20334;-60
2022/10/09 02:10:22;;;;;;;6.82;6.32;;;;;;;;;;4979069;28;20045;-60
2022/10/09 02:12:56;;;;;;;6.32;5.88;;;;;;;;;;4982537;28;20062;-60
2022/10/09 02:15:25;;;;;;;7.80;6.70;;;;;;;;;;4980891;28;20033;-60
2022/10/09 02:17:55;;;;;;;6.80;6.30;;;;;;;;;;4978458;28;20119;-60
2022/10/09 02:20:30;;;;;;;7.13;6.63;;;;;;;;;;4978940;28;20116;-61
2022/10/09 02:22:58;;;;;;;6.75;6.25;;;;;;;;;;4978666;28;20042;-60
2022/10/09 02:25:23;;;;;;;7.88;7.30;;;;;;;;;;4977416;28;20031;-60
2022/10/09 02:27:49;;;;;;;6.72;6.22;;;;;;;;;;4982069;28;20045;-60
2022/10/09 02:30:15;;;;;;;7.20;6.70;;;;;;;;;;4978943;28;20041;-60
2022/10/09 02:32:40;;;;;;;6.65;6.15;;;;;;;;;;4978111;28;20130;-60
2022/10/09 02:35:07;;;;;;;7.80;7.20;;;;;;;;;;4978174;28;20129;-60
2022/10/09 02:37:32;;;;;;;7.00;6.50;;;;;;;;;;4979022;28;20058;-60
2022/10/09 02:39:58;;;;;;;6.10;5.70;;;;;;;;;;4979812;28;20081;-60
2022/10/09 02:42:24;;;;;;;7.03;6.53;;;;;;;;;;4978824;28;20034;-60
2022/10/09 02:44:50;;;;;;;7.20;6.70;;;;;;;;;;4979941;28;20031;-60
2022/10/09 02:47:16;;;;;;;7.35;6.85;;;;;;;;;;4977669;28;20054;-60
2022/10/09 02:49:41;;;;;;;7.45;6.95;;;;;;;;;;4977802;28;20121;-60
2022/10/09 02:52:06;;;;;;;7.65;7.05;;;;;;;;;;4980170;28;20030;-60
2022/10/09 02:54:32;;;;;;;6.95;6.45;;;;;;;;;;4980439;28;20459;-61
2022/10/09 02:56:57;;;;;;;6.50;6.10;;;;;;;;;;4984050;28;20464;-60
2022/10/09 02:59:22;;;;;;;7.28;6.68;;;;;;;;;;4981380;28;20030;-61
2022/10/09 03:01:48;;;;;;;6.68;6.18;;;;;;;;;;4980135;28;20122;-61
2022/10/09 03:04:13;;;;;;;7.57;6.85;;;;;;;;;;4977806;28;20155;-61
2022/10/09 03:06:39;;;;;;;6.80;6.30;;;;;;;;;;4979753;28;20034;-61
2022/10/09 03:09:04;;;;;;;7.78;7.13;;;;;;;;;;4978731;28;20528;-61
2022/10/09 03:11:29;;;;;;;7.88;7.32;;;;;;;;;;4978468;28;20026;-61
2022/10/09 03:13:55;;;;;;;7.00;6.45;;;;;;;;;;4981241;28;20376;-60
2022/10/09 03:16:22;;;;;;;7.28;6.78;;;;;;;;;;4992903;28;20396;-61
2022/10/09 03:18:49;;;;;;;7.65;7.10;;;;;;;;;;4979084;28;20034;-61
2022/10/09 03:21:20;;;;;;;7.10;6.60;;;;;;;;;;4978171;28;20035;-60
2022/10/09 03:23:45;;;;;;;7.68;7.07;;;;;;;;;;4977226;28;20497;-60
2022/10/09 03:26:14;;;;;;;7.10;6.60;;;;;;;;;;4977376;28;20034;-60
2022/10/09 03:28:42;;;;;;;8.15;7.45;;;;;;;;;;4978282;28;20357;-60
2022/10/09 03:31:07;;;;;;;7.15;6.65;;;;;;;;;;4976092;28;20081;-61
2022/10/09 03:33:34;;;;;;;8.32;7.82;;;;;;;;;;4979099;28;20033;-60
2022/10/09 03:36:00;;;;;;;7.70;7.20;;;;;;;;;;4978299;28;20534;-60
2022/10/09 03:38:25;;;;;;;8.05;7.45;;;;;;;;;;4977809;28;20171;-60
2022/10/09 03:40:51;;;;;;;7.88;7.38;;;;;;;;;;4978366;28;20088;-60
2022/10/09 03:43:17;;;;;;;7.97;7.47;;;;;;;;;;4993682;28;20031;-60
2022/10/09 03:45:43;;;;;;;7.57;7.07;;;;;;;;;;4976949;28;20368;-61
2022/10/09 03:48:09;;;;;;;7.72;7.22;;;;;;;;;;4976266;28;20045;-60
2022/10/09 03:50:36;;;;;;;8.75;8.15;;;;;;;;;;4978649;28;20026;-60
2022/10/09 03:53:01;;;;;;;8.82;8.23;;;;;;;;;;4974755;28;20058;-61
2022/10/09 03:55:27;;;;;;;9.85;9.15;;;;;;;;;;4980655;28;20613;-60
2022/10/09 03:57:52;;;;;;;10.35;9.65;;;;;;;;;;4980056;28;20031;-60
2022/10/09 04:00:18;;;;;;;8.65;8.05;;;;;;;;;;4978961;28;20383;-60
2022/10/09 04:02:43;;;;;;;9.13;8.52;;;;;;;;;;4980146;28;20130;-61
2022/10/09 04:05:08;;;;;;;9.45;8.77;;;;;;;;;;4981413;28;20101;-61
2022/10/09 04:07:34;;;;;;;10.07;9.38;;;;;;;;;;4980129;28;20038;-60
2022/10/09 04:09:59;;;;;;;10.05;9.35;;;;;;;;;;4975908;28;20031;-61
2022/10/09 04:12:24;;;;;;;10.00;9.30;;;;;;;;;;4981388;28;20058;-61
2022/10/09 04:14:50;;;;;;;11.82;10.85;;;;;;;;;;4976324;28;20085;-60
2022/10/09 04:17:15;;;;;;;9.40;8.70;;;;;;;;;;4975050;28;20023;-60
2022/10/09 04:19:41;;;;;;;10.10;9.40;;;;;;;;;;4979477;28;20167;-60
2022/10/09 04:22:06;;;;;;;9.85;9.15;;;;;;;;;;4977548;28;20035;-60
2022/10/09 04:24:31;;;;;;;9.65;8.98;;;;;;;;;;4974914;28;20030;-60
2022/10/09 04:26:57;;;;;;;10.38;9.70;;;;;;;;;;4976217;28;20042;-61
2022/10/09 04:29:22;;;;;;;10.70;9.93;;;;;;;;;;4975487;28;20034;-61
2022/10/09 04:31:47;;;;;;;8.85;8.25;;;;;;;;;;4977159;28;20653;-61
2022/10/09 04:34:13;;;;;;;9.73;9.13;;;;;;;;;;4980498;28;20034;-61
2022/10/09 04:36:38;;;;;;;10.90;9.88;;;;;;;;;;4980481;28;20026;-60
2022/10/09 04:39:04;;;;;;;10.00;9.40;;;;;;;;;;4979298;28;20037;-61
2022/10/09 04:41:29;;;;;;;9.82;9.18;;;;;;;;;;4987003;28;20033;-61
2022/10/09 04:43:55;;;;;;;9.77;9.10;;;;;;;;;;4980138;28;20360;-61
2022/10/09 04:46:22;;;;;;;11.15;10.45;;;;;;;;;;4979718;28;20045;-61
2022/10/09 04:48:47;;;;;;;10.85;10.05;;;;;;;;;;4985035;28;20055;-61
2022/10/09 04:51:14;;;;;;;9.88;9.18;;;;;;;;;;4980720;28;20128;-61
2022/10/09 04:53:40;;;;;;;9.90;9.30;;;;;;;;;;4980639;28;20027;-61
2022/10/09 04:56:08;;;;;;;9.70;9.00;;;;;;;;;;4980285;28;20058;-61
2022/10/09 04:58:35;;;;;;;12.15;10.63;;;;;;;;;;4983350;28;20035;-61
2022/10/09 05:01:06;;;;;;;9.30;8.70;;;;;;;;;;4981210;28;20027;-61
2022/10/09 05:03:31;;;;;;;9.00;8.40;;;;;;;;;;4979956;28;20022;-61
2022/10/09 05:06:01;;;;;;;8.63;8.02;;;;;;;;;;4979460;28;20068;-61
2022/10/09 05:08:26;;;;;;;8.48;7.88;;;;;;;;;;4980569;28;20501;-61
2022/10/09 05:10:51;;;;;;;8.38;7.78;;;;;;;;;;4978146;28;20081;-63
2022/10/09 05:13:17;;;;;;;8.75;8.10;;;;;;;;;;4981317;28;20636;-62
2022/10/09 05:15:42;;;;;;;8.65;8.05;;;;;;;;;;4979681;28;20042;-63
2022/10/09 05:18:07;;;;;;;9.00;8.40;;;;;;;;;;4982247;28;20408;-63
2022/10/09 05:20:33;;;;;;;8.15;7.55;;;;;;;;;;4979309;28;20561;-61
2022/10/09 05:22:58;;;;;;;9.27;8.15;;;;;;;;;;4980039;28;20619;-61
2022/10/09 05:25:24;;;;;;;8.55;7.95;;;;;;;;;;4976239;28;20380;-61
2022/10/09 05:27:49;;;;;;;10.18;8.98;;;;;;;;;;4980164;28;20061;-61
2022/10/09 05:30:14;;;;;;;8.80;8.20;;;;;;;;;;4980076;28;20465;-61
2022/10/09 05:32:40;;;;;;;8.45;7.93;;;;;;;;;;4978803;28;20031;-61
2022/10/09 05:35:05;;;;;;;8.40;7.80;;;;;;;;;;4978955;28;20105;-61
2022/10/09 05:37:31;;;;;;;8.10;7.55;;;;;;;;;;4981592;28;20077;-61
2022/10/09 05:39:56;;;;;;;8.10;7.50;;;;;;;;;;4977164;28;20121;-61
2022/10/09 05:42:21;;;;;;;8.15;7.55;;;;;;;;;;4977852;28;20049;-60
2022/10/09 05:44:47;;;;;;;7.00;6.50;;;;;;;;;;4978025;28;20041;-61
2022/10/09 05:47:16;;;;;;;7.85;7.35;;;;;;;;;;4979425;28;20039;-62
2022/10/09 05:49:42;;;;;;;7.55;7.05;;;;;;;;;;4976255;28;20223;-62
2022/10/09 05:52:38;;;;;;;7.40;6.90;;;;;;;;;;4980596;28;20085;-62
2022/10/09 06:00:16;;;;;;;8.38;7.78;;;;;;;;;;4968808;28;20046;-62
2022/10/09 06:04:28;;;;;;;7.90;7.28;;;;;;;;;;4960850;28;20065;-62
2022/10/09 07:00:43;;;;;;;8.43;7.82;;;;;;;;;;4970986;28;20059;-62
2022/10/09 07:03:08;;;;;;;8.27;7.78;;;;;;;;;;4970785;28;20354;-62
2022/10/09 07:05:34;;;;;;;8.80;8.10;;;;;;;;;;4986845;28;20042;-61
2022/10/09 07:07:59;;;;;;;9.02;8.43;;;;;;;;;;4993077;28;20026;-62
2022/10/09 07:10:24;;;;;;;8.10;7.57;;;;;;;;;;4992674;28;20367;-61
2022/10/09 07:12:50;;;;;;;6.68;6.18;;;;;;;;;;4998639;28;20404;-61
2022/10/09 07:15:15;;;;;;;7.38;6.82;;;;;;;;;;4996603;28;20591;-62
2022/10/09 07:17:40;;;;;;;6.65;6.13;;;;;;;;;;5013489;28;20456;-62
2022/10/09 07:20:06;;;;;;;7.07;6.57;;;;;;;;;;4982389;28;20026;-61
2022/10/09 07:22:31;;;;;;;7.15;6.65;;;;;;;;;;4997064;28;20112;-62
2022/10/09 07:24:57;;;;;;;6.97;6.47;;;;;;;;;;4993193;28;20468;-62
2022/10/09 07:27:22;;;;;;;7.10;6.60;;;;;;;;;;4994066;28;20076;-62
2022/10/09 07:29:47;;;;;;;7.68;7.13;;;;;;;;;;4995153;28;20046;-62
2022/10/09 07:32:13;;;;;;;6.85;6.35;;;;;;;;;;4989709;28;20045;-62
2022/10/09 07:34:38;;;;;;;6.75;6.25;;;;;;;;;;5000055;28;20032;-62
2022/10/09 07:37:03;;;;;;;6.00;5.60;;;;;;;;;;4998450;28;20038;-62
2022/10/09 07:39:29;;;;;;;7.82;7.05;;;;;;;;;;4993405;28;20029;-62
2022/10/09 07:41:55;;;;;;;7.07;6.32;;;;;;;;;;4993231;28;20049;-62
2022/10/09 07:44:20;;;;;;;6.82;6.32;;;;;;;;;;4996591;28;20545;-62
2022/10/09 07:46:49;;;;;;;6.82;6.32;;;;;;;;;;4997578;28;20034;-61
2022/10/09 07:49:14;;;;;;;7.00;6.50;;;;;;;;;;4982620;28;20109;-62
2022/10/09 07:51:40;;;;;;;7.00;6.50;;;;;;;;;;4995434;28;20130;-61
2022/10/09 07:54:05;;;;;;;8.50;7.88;;;;;;;;;;4995221;28;20034;-62
2022/10/09 07:56:33;;;;;;;7.32;6.82;;;;;;;;;;4997381;28;20060;-61
2022/10/09 07:59:01;;;;;;;7.95;7.45;;;;;;;;;;4992613;28;20042;-62
2022/10/09 08:01:27;;;;;;;8.57;7.97;;;;;;;;;;4992964;28;20029;-62
2022/10/09 08:03:53;;;;;;;8.35;7.75;;;;;;;;;;4992307;28;20120;-61
2022/10/09 08:06:19;;;;;;;8.25;7.72;;;;;;;;;;4981820;28;20041;-61
2022/10/09 08:08:52;;;;;;;23.88;7.88;;;;;;;;;;4997007;28;20037;-61
2022/10/09 08:11:18;;;;;;;7.53;7.03;;;;;;;;;;4999288;28;20410;-61
2022/10/09 08:13:46;;;;;;;7.82;7.32;;;;;;;;;;5000955;28;20360;-62
2022/10/09 08:16:12;;;;;;;7.97;7.40;;;;;;;;;;5001000;28;20052;-62
2022/10/09 08:18:37;;;;;;;7.85;7.35;;;;;;;;;;5000542;28;20247;-61
2022/10/09 08:21:11;;;;;;;8.10;7.50;;;;;;;;;;4998784;28;20041;-62
2022/10/09 08:23:37;;;;;;;7.28;6.78;;;;;;;;;;4999915;28;20032;-61
2022/10/09 08:26:03;;;;;;;8.02;7.53;;;;;;;;;;4995796;28;20124;-61
2022/10/09 08:28:29;;;;;;;7.30;6.80;;;;;;;;;;5002115;28;20037;-61
2022/10/09 08:30:54;;;;;;;7.97;7.47;;;;;;;;;;4998067;28;20069;-61
2022/10/09 08:33:22;;;;;;;8.02;7.50;;;;;;;;;;4999115;28;20033;-61
2022/10/09 08:35:53;;;;;;;8.20;7.65;;;;;;;;;;4997576;28;20464;-60
2022/10/09 08:38:19;;;;;;;9.57;8.98;;;;;;;;;;4999584;28;20040;-61
2022/10/09 08:41:08;;;;;;;8.05;7.55;;;;;;;;;;4997210;28;20132;-61
2022/10/09 08:43:38;;;;;;;8.90;8.30;;;;;;;;;;5000226;28;20348;-62
2022/10/09 08:46:15;;;;;;;7.50;7.00;;;;;;;;;;4998498;28;20277;-62
2022/10/09 08:48:44;;;;;;;9.15;8.45;;;;;;;;;;4996854;28;20308;-61
2022/10/09 08:51:20;;;;;;;8.93;8.15;;;;;;;;;;5000095;28;20040;-61
2022/10/09 08:53:57;;;;;;;8.13;7.63;;;;;;;;;;4997690;28;20407;-61
2022/10/09 08:56:25;;;;;;;8.02;7.45;;;;;;;;;;4995883;28;20129;-62
2022/10/09 08:58:50;;;;;;;7.32;6.82;;;;;;;;;;4996426;28;20429;-61
2022/10/09 09:01:21;;;;;;;7.47;6.97;;;;;;;;;;4980743;28;20320;-61
2022/10/09 09:04:31;;;;;;;6.95;6.45;;;;;;;;;;4999795;28;20026;-62
2022/10/09 09:07:15;;;;;;;6.40;5.90;;;;;;;;;;4945655;28;20349;-61
2022/10/09 09:09:58;;;;;;;7.95;6.47;;;;;;;;;;4975019;28;20046;-61
2022/10/09 09:12:45;;;;;;;6.20;5.80;;;;;;;;;;4997967;28;20038;-62
2022/10/09 09:15:37;;;;;;;6.35;5.90;;;;;;;;;;4995248;28;20066;-62
2022/10/09 09:18:11;;;;;;;5.80;5.38;;;;;;;;;;4996902;28;20049;-61
2022/10/09 09:20:53;;;;;;;5.88;5.47;;;;;;;;;;4994520;28;20045;-62
2022/10/09 09:23:29;;;;;;;7.68;7.18;;;;;;;;;;4977654;28;20339;-61
2022/10/09 09:25:55;;;;;;;7.72;7.22;;;;;;;;;;4997848;28;20104;-62
2022/10/09 09:28:28;;;;;;;8.48;7.88;;;;;;;;;;4999117;28;20141;-62
2022/10/09 09:31:00;;;;;;;8.48;7.95;;;;;;;;;;4997361;28;20045;-62
2022/10/09 09:33:43;;;;;;;8.52;8.02;;;;;;;;;;4999409;28;20038;-63
2022/10/09 09:36:17;;;;;;;8.38;7.78;;;;;;;;;;4995323;28;20535;-61
2022/10/09 09:38:42;;;;;;;7.63;7.13;;;;;;;;;;4998578;28;20038;-62
2022/10/09 09:41:07;;;;;;;8.30;7.80;;;;;;;;;;4994660;28;20030;-63
2022/10/09 09:43:34;;;;;;;9.63;9.00;;;;;;;;;;4997594;28;20022;-61
2022/10/09 09:46:01;;;;;;;10.48;9.43;;;;;;;;;;4996906;28;20514;-62
2022/10/09 09:48:29;;;;;;;10.30;9.70;;;;;;;;;;4994727;28;20053;-61
2022/10/09 09:50:54;;;;;;;10.73;10.00;;;;;;;;;;4997298;28;20262;-61
2022/10/09 09:53:22;;;;;;;10.90;10.20;;;;;;;;;;4978353;28;20322;-62
2022/10/09 09:55:52;;;;;;;11.50;10.80;;;;;;;;;;4999334;28;20095;-61
2022/10/09 09:58:18;;;;;;;11.07;10.38;;;;;;;;;;4999015;28;20543;-62
2022/10/09 10:01:00;;;;;;;12.05;11.35;;;;;;;;;;4996131;28;20049;-61
2022/10/09 10:03:26;;;;;;;11.05;10.35;;;;;;;;;;5011787;28;20087;-61
2022/10/09 10:05:52;;;;;;;12.57;11.77;;;;;;;;;;4992226;28;20041;-61
2022/10/09 10:08:22;;;;;;;12.45;11.75;;;;;;;;;;4993789;28;20052;-62
2022/10/09 10:10:50;;;;;;;13.15;12.32;;;;;;;;;;4998531;28;20034;-62
2022/10/09 10:13:19;;;;;;;16.77;15.60;;;;;;;;;;4996853;28;20415;-60
2022/10/09 10:15:56;;;;;;;15.80;14.80;;;;;;;;;;4996532;28;20040;-61
2022/10/09 10:18:24;;;;;;;15.25;14.35;;;;;;;;;;4996686;28;20026;-61
2022/10/09 10:20:53;;;;;;;18.15;17.13;;;;;;;;;;4999351;28;20520;-61
2022/10/09 10:23:31;;;;;;;19.58;18.48;;;;;;;;;;4997031;28;20045;-61
2022/10/09 10:25:59;;;;;;;18.27;17.08;;;;;;;;;;4995347;28;20412;-61
2022/10/09 10:28:30;;;;;;;16.67;15.75;;;;;;;;;;4994752;28;20502;-61
2022/10/09 10:31:01;;;;;;;15.45;14.55;;;;;;;;;;4993843;28;20420;-60
2022/10/09 10:33:29;;;;;;;17.50;16.52;;;;;;;;;;4997401;28;20053;-62
2022/10/09 10:35:57;;;;;;;17.83;16.63;;;;;;;;;;4979023;28;20066;-62
2022/10/09 10:38:29;;;;;;;19.23;18.13;;;;;;;;;;4994300;28;20116;-61
2022/10/09 10:41:14;;;;;;;19.13;18.08;;;;;;;;;;4996997;28;20477;-62
2022/10/09 10:43:45;;;;;;;20.08;18.98;;;;;;;;;;5010764;28;20030;-62
2022/10/09 10:46:47;;;;;;;18.52;17.45;;;;;;;;;;4996630;28;20034;-61
2022/10/09 10:49:18;;;;;;;19.10;18.00;;;;;;;;;;4994508;28;20045;-61
2022/10/09 10:51:44;;;;;;;21.77;20.58;;;;;;;;;;4998281;28;20127;-60
2022/10/09 10:54:39;;;;;;;19.08;17.98;;;;;;;;;;5065549;27;20398;-60
2022/10/09 10:57:13;;;;;;;17.20;16.20;;;;;;;;;;5063137;28;20116;-62
2022/10/09 10:59:41;;;;;;;16.10;15.20;;;;;;;;;;5056792;28;20534;-61
2022/10/09 11:02:34;;;;;;;19.98;18.80;;;;;;;;;;5058278;28;20200;-61
2022/10/09 11:05:17;;;;;;;16.02;15.13;;;;;;;;;;5057523;28;20029;-61
2022/10/09 11:07:50;;;;;;;16.98;15.98;;;;;;;;;;5058399;28;20120;-61
2022/10/09 11:10:25;;;;;;;16.80;15.80;;;;;;;;;;5057267;28;20542;-61
2022/10/09 11:13:05;;;;;;;15.77;14.88;;;;;;;;;;5055428;28;20347;-61
2022/10/09 11:16:01;;;;;;;15.45;14.55;;;;;;;;;;5058348;28;20043;-60
2022/10/09 11:18:51;;;;;;;14.38;13.57;;;;;;;;;;5087345;28;20032;-61
2022/10/09 11:21:58;;;;;;;14.43;13.63;;;;;;;;;;5087176;28;20557;-61
2022/10/09 11:24:53;;;;;;;13.43;12.63;;;;;;;;;;4989223;28;20597;-60
2022/10/09 11:27:54;;;;;;;14.50;13.70;;;;;;;;;;5058612;28;20091;-60
2022/10/09 11:30:19;;;;;;;13.27;12.48;;;;;;;;;;5058772;28;20102;-60
2022/10/09 11:33:21;;;;;;;13.02;12.23;;;;;;;;;;5059981;28;20091;-61
2022/10/09 11:35:56;;;;;;;13.45;12.65;;;;;;;;;;5052852;28;20037;-62
2022/10/09 11:38:28;;;;;;;13.70;12.90;;;;;;;;;;5058873;28;20036;-61
2022/10/09 11:40:55;;;;;;;13.60;12.80;;;;;;;;;;5064356;28;20063;-61
2022/10/09 11:43:51;;;;;;;11.93;11.23;;;;;;;;;;5092118;28;20151;-60
2022/10/09 11:46:41;;;;;;;12.13;11.40;;;;;;;;;;5052551;28;20040;-61
2022/10/09 11:49:21;;;;;;;11.95;11.23;;;;;;;;;;5057283;28;20099;-61
2022/10/09 11:52:14;;;;;;;12.55;11.75;;;;;;;;;;5059145;28;20109;-62
2022/10/09 11:54:39;;;;;;;12.77;12.02;;;;;;;;;;5056740;28;20031;-58
2022/10/09 11:57:05;;;;;;;12.10;11.40;;;;;;;;;;5056824;28;20485;-60
2022/10/09 11:59:36;;;;;;;12.35;11.63;;;;;;;;;;5054101;28;20032;-58
2022/10/09 12:02:20;;;;;;;;;;;;;;;;;;5056862;28;20137;-60
2022/10/09 12:04:46;;;;;;;11.27;10.57;;;;;;;;;;5048757;28;20047;-61
2022/10/09 12:07:12;;;;;;;12.23;11.52;;;;;;;;;;5049019;28;20071;-60
2022/10/09 12:09:44;;;;;;;11.55;10.85;;;;;;;;;;5041613;28;20061;-59
2022/10/09 12:12:15;;;;;;;13.63;12.82;;;;;;;;;;5043207;28;20028;-59
2022/10/09 12:14:43;;;;;;;12.85;12.10;;;;;;;;;;5046539;28;20037;-61
2022/10/09 12:17:16;;;;;;;13.73;12.93;;;;;;;;;;5040951;28;20041;-60
2022/10/09 12:19:43;;;;;;;14.35;13.55;;;;;;;;;;5045044;28;20070;-62
2022/10/09 12:22:17;;;;;;;14.23;13.43;;;;;;;;;;5072959;28;20033;-60
2022/10/09 12:25:27;;;;;;;15.98;15.07;;;;;;;;;;5044718;28;20044;-60
2022/10/09 12:27:56;;;;;;;13.45;12.68;;;;;;;;;;5046188;28;20033;-60
2022/10/09 12:30:27;;;;;;;14.43;13.63;;;;;;;;;;5043700;28;20033;-61
2022/10/09 12:32:58;;;;;;;14.52;13.70;;;;;;;;;;5041908;28;20040;-60
2022/10/09 12:35:25;;;;;;;;;;;;;;;;;;5041537;28;20045;-61
2022/10/09 12:37:50;;;;;;;13.32;12.52;;;;;;;;;;5046892;28;20289;-61
2022/10/09 12:40:21;;;;;;;15.55;14.65;;;;;;;;;;5046023;28;20094;-62
2022/10/09 12:42:50;;;;;;;15.68;14.77;;;;;;;;;;5044326;28;20075;-62
2022/10/09 12:45:24;;;;;;;17.05;15.95;;;;;;;;;;5036310;28;20037;-63
2022/10/09 12:47:51;;;;;;;15.40;14.50;;;;;;;;;;5039401;28;20354;-61
2022/10/09 12:50:33;;;;;;;17.65;16.65;;;;;;;;;;5039039;28;20486;-61
2022/10/09 12:53:03;;;;;;;19.73;18.63;;;;;;;;;;5043666;28;20033;-61
2022/10/09 12:55:31;;;;;;;19.67;18.58;;;;;;;;;;5043322;28;20072;-61
2022/10/09 12:58:19;;;;;;;19.60;18.52;;;;;;;;;;5040085;28;20025;-62
2022/10/09 13:00:46;;;;;;;21.40;20.20;;;;;;;;;;5044488;28;20098;-62
2022/10/09 13:03:56;;;;;;;18.15;17.15;;;;;;;;;;5045613;28;20036;-62
2022/10/09 13:06:25;;;;;;;19.07;18.07;;;;;;;;;;5004707;28;20175;-61
2022/10/09 13:09:03;;;;;;;19.58;18.48;;;;;;;;;;5041807;28;20040;-61
2022/10/09 13:11:39;;;;;;;18.05;17.05;;;;;;;;;;5044424;28;20130;-61
2022/10/09 13:14:05;;;;;;;18.55;17.55;;;;;;;;;;5041316;28;20018;-62
2022/10/09 13:16:42;;;;;;;18.08;17.08;;;;;;;;;;5042197;28;20120;-61
2022/10/09 13:19:24;;;;;;;17.55;16.55;;;;;;;;;;5047843;28;20421;-60
2022/10/09 13:22:19;;;;;;;17.33;16.33;;;;;;;;;;5038417;28;20021;-61
2022/10/09 13:24:44;;;;;;;18.48;17.48;;;;;;;;;;5040068;28;20048;-64
2022/10/09 13:27:13;;;;;;;20.00;18.70;;;;;;;;;;5051106;28;20079;-64
2022/10/09 13:29:40;;;;;;;20.05;18.95;;;;;;;;;;5044411;28;20036;-66
2022/10/09 13:32:07;;;;;;;19.50;18.45;;;;;;;;;;5043134;28;20045;-67
2022/10/09 13:34:33;;;;;;;19.63;18.58;;;;;;;;;;5043554;28;20055;-66
2022/10/09 13:36:58;;;;;;;19.35;18.27;;;;;;;;;;5056453;28;20099;-67
2022/10/09 13:39:24;;;;;;;19.23;18.15;;;;;;;;;;5046101;28;20033;-65
2022/10/09 13:41:54;;;;;;;17.83;16.83;;;;;;;;;;5048418;28;20025;-65
2022/10/09 13:44:19;;;;;;;19.92;18.67;;;;;;;;;;5045267;28;20041;-67
2022/10/09 13:46:45;;;;;;;18.40;17.27;;;;;;;;;;5040231;28;20040;-66
2022/10/09 13:49:10;;;;;;;18.17;17.17;;;;;;;;;;5043560;28;20115;-64
2022/10/09 13:51:36;;;;;;;19.23;18.20;;;;;;;;;;5040448;28;20654;-66
2022/10/09 13:54:01;;;;;;;19.63;18.52;;;;;;;;;;5040917;28;20028;-65
2022/10/09 13:56:27;;;;;;;19.42;18.33;;;;;;;;;;5038903;28;20029;-67
2022/10/09 13:58:52;;;;;;;18.33;17.33;;;;;;;;;;5037750;28;20076;-68
2022/10/09 14:01:18;;;;;;;20.33;19.13;;;;;;;;;;5041391;28;20484;-66
2022/10/09 14:03:43;;;;;;;19.48;18.38;;;;;;;;;;5037111;28;20037;-65
2022/10/09 14:06:09;;;;;;;21.25;19.95;;;;;;;;;;5043434;28;20053;-67
2022/10/09 14:08:34;;;;;;;19.88;18.77;;;;;;;;;;5038216;28;20045;-65
2022/10/09 14:11:00;;;;;;;18.55;17.55;;;;;;;;;;5045435;28;20043;-66
2022/10/09 14:13:25;;;;;;;18.80;17.80;;;;;;;;;;5044320;28;20036;-66
2022/10/09 14:15:52;;;;;;;18.33;17.33;;;;;;;;;;5044694;28;20059;-66
2022/10/09 14:18:17;;;;;;;17.77;16.77;;;;;;;;;;5043139;28;20041;-65
2022/10/09 14:20:43;;;;;;;18.85;17.80;;;;;;;;;;5039798;28;20041;-65
2022/10/09 14:23:09;;;;;;;19.20;18.10;;;;;;;;;;5043322;28;20507;-65
2022/10/09 14:25:34;;;;;;;18.08;17.08;;;;;;;;;;5041187;28;20033;-65
2022/10/09 14:28:00;;;;;;;17.27;16.33;;;;;;;;;;5043474;28;20060;-65
2022/10/09 14:30:25;;;;;;;18.20;17.00;;;;;;;;;;5039190;28;20033;-64
2022/10/09 14:32:51;;;;;;;15.50;14.50;;;;;;;;;;5039270;28;20040;-66
2022/10/09 14:35:16;;;;;;;16.38;15.38;;;;;;;;;;5041959;28;20033;-64
2022/10/09 14:37:41;;;;;;;16.30;15.00;;;;;;;;;;5041923;28;20462;-66
2022/10/09 14:40:07;;;;;;;15.27;14.32;;;;;;;;;;5040497;28;20333;-66
2022/10/09 14:42:35;;;;;;;15.27;14.40;;;;;;;;;;5040123;28;20033;-65
2022/10/09 14:45:00;;;;;;;17.58;16.58;;;;;;;;;;5040738;28;20421;-65
2022/10/09 14:47:25;;;;;;;16.52;15.63;;;;;;;;;;5042095;28;20021;-65
2022/10/09 14:49:51;;;;;;;14.73;13.90;;;;;;;;;;5045566;28;20021;-64
2022/10/09 14:52:16;;;;;;;15.48;14.57;;;;;;;;;;5044413;28;20483;-65
2022/10/09 14:54:41;;;;;;;14.32;13.50;;;;;;;;;;5043229;28;20045;-64
2022/10/09 14:57:07;;;;;;;14.80;13.93;;;;;;;;;;5037283;28;20129;-65
2022/10/09 14:59:32;;;;;;;15.60;14.40;;;;;;;;;;5039988;28;20107;-65
2022/10/09 15:01:57;;;;;;;14.77;13.80;;;;;;;;;;5038037;28;20711;-65
2022/10/09 15:04:24;;;;;;;13.80;13.00;;;;;;;;;;5045699;28;20255;-65
2022/10/09 15:06:49;;;;;;;12.63;11.93;;;;;;;;;;5044571;28;20044;-65
2022/10/09 15:09:15;;;;;;;12.30;11.25;;;;;;;;;;5043878;28;20030;-65
2022/10/09 15:11:40;;;;;;;12.57;11.77;;;;;;;;;;5038768;28;20136;-66
2022/10/09 15:14:06;;;;;;;11.57;10.88;;;;;;;;;;5032626;28;20037;-60
2022/10/09 15:16:32;;;;;;;12.50;11.80;;;;;;;;;;5042136;28;20342;-60
2022/10/09 15:18:58;;;;;;;11.50;10.80;;;;;;;;;;5041862;28;20095;-66
2022/10/09 15:21:29;;;;;;;11.43;10.73;;;;;;;;;;5037428;28;20029;-65
2022/10/09 15:23:56;;;;;;;11.32;10.50;;;;;;;;;;5041350;28;20032;-66
2022/10/09 15:26:23;;;;;;;10.75;10.10;;;;;;;;;;5040947;28;20044;-65
2022/10/09 15:28:48;;;;;;;11.27;10.57;;;;;;;;;;5074499;28;20045;-65
2022/10/09 15:31:25;;;;;;;13.20;12.30;;;;;;;;;;5038686;28;20059;-61
2022/10/09 15:33:52;;;;;;;11.48;10.77;;;;;;;;;;5040271;28;20029;-60
2022/10/09 15:36:21;;;;;;;11.05;10.35;;;;;;;;;;5045632;28;20041;-60
2022/10/09 15:38:47;;;;;;;13.68;12.63;;;;;;;;;;5040982;28;20093;-59
2022/10/09 15:41:25;;;;;;;11.20;10.50;;;;;;;;;;5045537;28;20063;-61
2022/10/09 15:43:52;;;;;;;10.40;9.70;;;;;;;;;;5041905;28;20030;-59
2022/10/09 15:46:18;;;;;;;17.08;15.68;;;;;;;;;;5051164;28;20040;-60
2022/10/09 15:48:44;;;;;;;11.82;10.93;;;;;;;;;;5046033;28;20028;-59
2022/10/09 15:51:12;;;;;;;13.65;12.60;;;;;;;;;;5046915;28;20041;-60